Logo AVAMET
Benvolgut visitant, si us plau, ingressa Recuperar contrasenya
AVAMET paisatges

Barx la Visteta

Dades diàries. Acumulats / Últims 30 dies disponibles

Data Temperatura (°C) Humitat rel. (%) Pressió rel. (hPa) Vent (km/h) Precipitació
Mínima Mitjana Màxima Amplitud
tèrmica
Mínima Mitjana Màxima Mínima Mitjana Màxima Predom. Mitjana Ràfega
màxima
Total
(mm)
Índex-n
Mínima Mitjana Màxima Mínima Mitjana Màxima n
0 a 1
P0 max
mm 5'
Dades mensuals acumulades fins l'últim dia disponible
08/2020 20,6 21,6 22,4 26,3 26,4 32,0 38,1 17,5 42 76 92 1.011 1.013 1.015   5,4 31,4 0,2
Dades anuals acumulades fins l'últim dia disponible
2020 2,1 12,1 22,4 16,5 8,1 21,4 38,1 36,0 23 72 98 1.000 1.018 1.035   6,6 88,8 738,3
Últims 30 dies disponibles
03-08-2020 22,4     24,4     26,4 4,0 72 82 92 1.011 1.012 1.014 ESE 5,1 31,4 0,2
02-08-2020 20,6     25,9     31,6 11,0 65 78 91 1.011 1.013 1.015 NE 5,7 25,9 0,0
01-08-2020 21,9     28,6     38,1 16,2 42 67 91 1.011 1.014 1.015 ESE 5,5 31,4 0,0
31-07-2020 20,2     26,5     32,8 12,6 43 66 89 1.013 1.015 1.016 NNE 6,1 25,9 0,0
30-07-2020 19,8     24,7     30,1 10,3 59 76 92 1.014 1.015 1.017 SSO 5,2 24,1 0,2
29-07-2020 20,5     24,4     28,1 7,6 70 81 91 1.014 1.015 1.017 NNE 5,4 29,6 0,0
28-07-2020 20,3     25,2     30,6 10,3 59 72 85 1.013 1.014 1.016 NE 7,2 35,1 0,0
27-07-2020 19,8     26,0     33,2 13,4 49 71 92 1.013 1.016 1.017 SE 4,3 22,2 0,0
26-07-2020 20,0     24,8     30,3 10,3 65 79 92 1.013 1.015 1.017 NNE 4,7 24,1 0,0
25-07-2020 21,4     25,1     30,3 8,9 55 73 90 1.012 1.014 1.015 ESE 4,3 27,8 0,0
24-07-2020 19,3     25,6     32,3 13,0 50 68 86 1.012 1.013 1.014 ESE 5,6 24,1 0,0
23-07-2020 17,6     25,2     32,7 15,1 26 55 84 1.013 1.015 1.017 SSE 6,2 25,9 0,0
22-07-2020 20,8     23,4     27,2 6,4 64 78 92 1.017 1.018 1.020 NNE 5,6 31,4 0,0
21-07-2020 18,9     23,2     27,4 8,5 68 80 92 1.017 1.018 1.019 NE 5,4 31,4 0,2
20-07-2020 21,7     24,3     30,1 8,4 59 75 91 1.014 1.016 1.018 NNE 3,5 22,2 0,0
19-07-2020 21,1     25,8     34,5 13,4 39 65 90 1.012 1.014 1.015 NNE 5,2 24,1 0,0
18-07-2020 19,4     24,2     30,1 10,7 57 74 91 1.012 1.015 1.016 ESE 5,4 31,4 0,0
17-07-2020 19,5     23,2     27,9 8,4 64 77 90 1.013 1.015 1.017 E 6,1 33,3 0,0
16-07-2020 17,7     23,3     27,7 10,0 59 73 87 1.016 1.018 1.019 SE 5,9 31,4 0,0
15-07-2020 16,7     22,0     27,2 10,5 51 72 92 1.015 1.016 1.018 SE 5,9 31,4 0,4
14-07-2020 18,1     21,9     27,2 9,1 64 77 90 1.014 1.016 1.018 E 5,0 33,3 11,6 0,42 1,70
13-07-2020 17,9     23,4     27,6 9,7 58 74 89 1.016 1.018 1.020 NE 6,6 33,3 0,0
12-07-2020 18,4     22,0     26,3 7,9 70 82 93 1.015 1.018 1.021 ESE 7,7 64,8 1,9
11-07-2020 18,4     22,4     25,6 7,2 75 84 92 1.015 1.017 1.018 NE 5,8 29,6 0,0
10-07-2020 18,4     23,5     28,4 10,0 57 74 90 1.013 1.014 1.016 NE 5,3 29,6 0,0
09-07-2020 20,8     24,4     29,0 8,2 43 64 85 1.013 1.016 1.017 ENE 6,6 42,5 0,0
08-07-2020 20,9     24,0     28,8 7,9 52 72 91 1.015 1.016 1.018 ESE 5,5 31,4 0,0
07-07-2020 19,2     25,2     30,9 11,7 50 69 87 1.013 1.014 1.016 NE 6,1 27,8 0,0
06-07-2020 18,3     26,3     33,0 14,7 34 61 87 1.013 1.015 1.018 SSE 6,1 27,8 0,0
05-07-2020 18,8     25,2     31,8 13,0 33 62 90 1.016 1.019 1.021 SE 5,3 31,4 0,0
Últims 13 mesos disponibles
07/2020 16,7 19,5 21,7 24,3 25,6 29,7 35,8 19,1 55 73 84 1.011 1.016 1.020 NE 5,5 64,8 16,1
06/2020 12,4 16,6 20,7 21,8 19,7 27,4 31,2 18,8 43 69 86 1.005 1.014 1.020 SO 6,2 42,5 39,1
05/2020 10,3 13,8 16,6 19,0 18,2 24,4 31,3 21,0 49 69 84 1.005 1.017 1.027 SSE 6,5 46,3 48,4
04/2020 6,0 10,3 16,2 13,8 13,7 18,0 24,3 18,3 51 76 94 1.006 1.016 1.026 SSE 5,6 46,3 67,5
03/2020 3,6 9,0 15,0 12,4 8,1 16,3 23,6 20,0 45 72 93 1.007 1.017 1.026 NE 7,8 88,8 200,1
02/2020 4,1 8,6 14,6 13,5 12,4 19,1 23,9 19,8 34 69 89 1.014 1.025 1.033 S 6,9 50,0 11,9
01/2020 2,1 6,1 13,3 9,7 9,9 14,0 18,7 16,6 57 77 96 1.015 1.025 1.033 S 7,9 85,1 355,0
12/2019 4,7 9,2 17,2 12,5 10,6 16,2 23,4 18,7 50 72 94 1.002 1.018 1.033 S 9,8 85,1 388,0
11/2019 4,4 10,3 19,2 13,6 12,8 17,4 24,7 20,3 48 61 78 999 1.011 1.019 SO 10,2 74,0 14,4
10/2019 9,9 14,1 18,3 18,5 14,2 23,3 32,0 22,1 43 70 91 1.008 1.016 1.022 S 5,3 42,5 53,9
09/2019 12,2 17,9 22,2 22,0 20,1 26,1 33,1 20,9 48 76 98 1.009 1.017 1.024 SSE 6,7 75,8 167,3
08/2019 16,6 19,8 24,1 25,0 25,9 30,8 39,7 23,1 45 70 84 1.010 1.015 1.020 SSE 5,6 44,4 31,8
07/2019 17,0 19,8 24,6 25,4 25,8 31,0 36,8 19,8 51 65 84 1.006 1.014 1.021 NE 6,0 42,5 0,2
Tots els anys disponibles
2019 3,0 13,8 24,6 18,1 10,6 23,1 39,7 36,7 13 58 98 999 1.016 1.029 S 7,2 75,8 1.086,7
Temperatura (°C)
Humitat relativa (%)
Velocitat del vent i ràfega màxima (km/h)
Direcció del vent (°)
Pressió (hPa)
Precipitació (mm)
Nota sobre les dades: s'avisa a l'usuari de la provisionalitat i no oficialitat d'aquestes dades
Logo AVAMET blanc
Web allotjada a Sollutia
Llicència de Creative CommonsLa web d'AVAMET i els seus continguts estan subjectes a una llicència de
Reconeixement - No Comercial - Compartir igual
Últimes estacions: Torremocha del Jiloca (Limítrofe/Soci), Orihuela - Arneva (MeteOrihuela), Enguera - Antolí (Soci), Vilamarxant - La Pedrera (Soci), Càlig (Ajuntament Soci), Quesa - Hotel La Rocha (Soci), Agres - Les Eres (Soci) - - -